sensor_id;sensor_type;location;lat;lon;timestamp;P1;durP1;ratioP1;P2;durP2;ratioP2
51660;SDS011;37741;49.748;8.490;2023-05-16T00:00:13;14.05;;;11.48;;
51660;SDS011;37741;49.748;8.490;2023-05-16T00:02:39;13.73;;;12.23;;
51660;SDS011;37741;49.748;8.490;2023-05-16T00:05:06;15.30;;;12.52;;
51660;SDS011;37741;49.748;8.490;2023-05-16T00:07:32;13.45;;;11.98;;
51660;SDS011;37741;49.748;8.490;2023-05-16T00:09:58;12.07;;;10.77;;
51660;SDS011;37741;49.748;8.490;2023-05-16T00:12:25;12.10;;;10.88;;
51660;SDS011;37741;49.748;8.490;2023-05-16T00:14:52;12.40;;;10.55;;
51660;SDS011;37741;49.748;8.490;2023-05-16T00:17:18;14.02;;;12.52;;
51660;SDS011;37741;49.748;8.490;2023-05-16T00:19:44;14.45;;;12.95;;
51660;SDS011;37741;49.748;8.490;2023-05-16T00:22:12;14.10;;;12.63;;
51660;SDS011;37741;49.748;8.490;2023-05-16T00:24:39;15.68;;;12.52;;
51660;SDS011;37741;49.748;8.490;2023-05-16T00:27:05;14.80;;;13.18;;
51660;SDS011;37741;49.748;8.490;2023-05-16T00:29:31;15.13;;;13.63;;
51660;SDS011;37741;49.748;8.490;2023-05-16T00:32:00;15.35;;;13.80;;
51660;SDS011;37741;49.748;8.490;2023-05-16T00:34:25;15.32;;;13.77;;
51660;SDS011;37741;49.748;8.490;2023-05-16T00:36:51;14.10;;;12.60;;
51660;SDS011;37741;49.748;8.490;2023-05-16T00:39:17;14.18;;;12.68;;
51660;SDS011;37741;49.748;8.490;2023-05-16T00:41:43;14.50;;;13.00;;
51660;SDS011;37741;49.748;8.490;2023-05-16T00:44:10;14.90;;;13.30;;
51660;SDS011;37741;49.748;8.490;2023-05-16T00:46:35;16.10;;;14.35;;
51660;SDS011;37741;49.748;8.490;2023-05-16T00:49:01;16.70;;;15.00;;
51660;SDS011;37741;49.748;8.490;2023-05-16T00:51:27;16.30;;;14.65;;
51660;SDS011;37741;49.748;8.490;2023-05-16T00:53:53;16.23;;;14.25;;
51660;SDS011;37741;49.748;8.490;2023-05-16T00:56:20;14.70;;;13.30;;
51660;SDS011;37741;49.748;8.490;2023-05-16T00:58:46;16.10;;;14.40;;
51660;SDS011;37741;49.748;8.490;2023-05-16T01:01:12;19.30;;;16.23;;
51660;SDS011;37741;49.748;8.490;2023-05-16T01:03:38;19.90;;;15.25;;
51660;SDS011;37741;49.748;8.490;2023-05-16T01:06:06;17.00;;;15.20;;
51660;SDS011;37741;49.748;8.490;2023-05-16T01:08:32;16.33;;;14.73;;
51660;SDS011;37741;49.748;8.490;2023-05-16T01:16:39;18.17;;;16.30;;
51660;SDS011;37741;49.748;8.490;2023-05-16T01:19:45;17.08;;;15.27;;
51660;SDS011;37741;49.748;8.490;2023-05-16T01:28:11;17.52;;;15.73;;
51660;SDS011;37741;49.748;8.490;2023-05-16T01:30:39;17.27;;;15.57;;
51660;SDS011;37741;49.748;8.490;2023-05-16T01:33:05;17.63;;;15.75;;
51660;SDS011;37741;49.748;8.490;2023-05-16T01:35:32;18.83;;;16.83;;
51660;SDS011;37741;49.748;8.490;2023-05-16T01:38:03;17.33;;;15.43;;
51660;SDS011;37741;49.748;8.490;2023-05-16T01:43:10;16.10;;;14.23;;
51660;SDS011;37741;49.748;8.490;2023-05-16T01:45:44;15.48;;;13.88;;
51660;SDS011;37741;49.748;8.490;2023-05-16T01:48:22;16.85;;;15.05;;
51660;SDS011;37741;49.748;8.490;2023-05-16T01:50:51;15.60;;;14.02;;
51660;SDS011;37741;49.748;8.490;2023-05-16T01:53:27;15.90;;;14.35;;
51660;SDS011;37741;49.748;8.490;2023-05-16T01:55:58;15.05;;;13.55;;
51660;SDS011;37741;49.748;8.490;2023-05-16T01:58:27;15.55;;;13.95;;
51660;SDS011;37741;49.748;8.490;2023-05-16T02:00:59;16.48;;;14.50;;
51660;SDS011;37741;49.748;8.490;2023-05-16T02:03:27;16.88;;;15.18;;
51660;SDS011;37741;49.748;8.490;2023-05-16T02:05:54;17.65;;;14.95;;
51660;SDS011;37741;49.748;8.490;2023-05-16T02:08:19;18.38;;;15.88;;
51660;SDS011;37741;49.748;8.490;2023-05-16T02:10:45;16.45;;;14.63;;
51660;SDS011;37741;49.748;8.490;2023-05-16T02:13:11;17.20;;;15.45;;
51660;SDS011;37741;49.748;8.490;2023-05-16T02:15:36;16.35;;;14.60;;
51660;SDS011;37741;49.748;8.490;2023-05-16T02:18:02;17.17;;;15.40;;
51660;SDS011;37741;49.748;8.490;2023-05-16T02:20:28;16.83;;;14.77;;
51660;SDS011;37741;49.748;8.490;2023-05-16T02:22:53;15.60;;;13.80;;
51660;SDS011;37741;49.748;8.490;2023-05-16T02:25:19;18.27;;;14.85;;
51660;SDS011;37741;49.748;8.490;2023-05-16T02:27:45;15.23;;;13.48;;
51660;SDS011;37741;49.748;8.490;2023-05-16T02:30:11;14.93;;;13.43;;
51660;SDS011;37741;49.748;8.490;2023-05-16T02:32:37;15.57;;;13.98;;
51660;SDS011;37741;49.748;8.490;2023-05-16T02:35:03;15.60;;;13.90;;
51660;SDS011;37741;49.748;8.490;2023-05-16T02:37:29;17.08;;;13.63;;
51660;SDS011;37741;49.748;8.490;2023-05-16T02:39:55;14.35;;;12.60;;
51660;SDS011;37741;49.748;8.490;2023-05-16T02:42:20;16.38;;;12.68;;
51660;SDS011;37741;49.748;8.490;2023-05-16T02:44:46;15.55;;;13.15;;
51660;SDS011;37741;49.748;8.490;2023-05-16T02:47:11;14.60;;;13.02;;
51660;SDS011;37741;49.748;8.490;2023-05-16T02:49:37;14.23;;;12.73;;
51660;SDS011;37741;49.748;8.490;2023-05-16T02:52:03;15.25;;;13.25;;
51660;SDS011;37741;49.748;8.490;2023-05-16T02:54:29;13.82;;;12.27;;
51660;SDS011;37741;49.748;8.490;2023-05-16T02:56:54;14.40;;;12.98;;
51660;SDS011;37741;49.748;8.490;2023-05-16T02:59:20;12.77;;;11.45;;
51660;SDS011;37741;49.748;8.490;2023-05-16T03:01:46;14.55;;;11.90;;
51660;SDS011;37741;49.748;8.490;2023-05-16T03:04:11;14.57;;;12.52;;
51660;SDS011;37741;49.748;8.490;2023-05-16T03:06:37;13.75;;;11.80;;
51660;SDS011;37741;49.748;8.490;2023-05-16T03:09:02;12.73;;;11.00;;
51660;SDS011;37741;49.748;8.490;2023-05-16T03:11:28;13.00;;;11.63;;
51660;SDS011;37741;49.748;8.490;2023-05-16T03:13:53;15.68;;;12.73;;
51660;SDS011;37741;49.748;8.490;2023-05-16T03:16:19;13.27;;;11.98;;
51660;SDS011;37741;49.748;8.490;2023-05-16T03:18:45;12.63;;;10.95;;
51660;SDS011;37741;49.748;8.490;2023-05-16T03:21:11;13.35;;;11.02;;
51660;SDS011;37741;49.748;8.490;2023-05-16T03:23:37;12.55;;;10.65;;
51660;SDS011;37741;49.748;8.490;2023-05-16T03:26:02;12.82;;;10.77;;
51660;SDS011;37741;49.748;8.490;2023-05-16T03:28:28;13.25;;;10.63;;
51660;SDS011;37741;49.748;8.490;2023-05-16T03:30:54;13.13;;;10.85;;
51660;SDS011;37741;49.748;8.490;2023-05-16T03:33:19;12.85;;;11.20;;
51660;SDS011;37741;49.748;8.490;2023-05-16T03:35:45;11.20;;;9.73;;
51660;SDS011;37741;49.748;8.490;2023-05-16T03:38:11;11.65;;;10.43;;
51660;SDS011;37741;49.748;8.490;2023-05-16T03:40:36;12.30;;;9.52;;
51660;SDS011;37741;49.748;8.490;2023-05-16T03:43:02;11.82;;;10.18;;
51660;SDS011;37741;49.748;8.490;2023-05-16T03:45:31;11.65;;;9.43;;
51660;SDS011;37741;49.748;8.490;2023-05-16T03:47:56;11.20;;;9.43;;
51660;SDS011;37741;49.748;8.490;2023-05-16T03:50:22;12.13;;;10.18;;
51660;SDS011;37741;49.748;8.490;2023-05-16T03:52:48;12.15;;;9.50;;
51660;SDS011;37741;49.748;8.490;2023-05-16T03:55:14;10.00;;;8.73;;
51660;SDS011;37741;49.748;8.490;2023-05-16T03:57:40;10.50;;;8.70;;
51660;SDS011;37741;49.748;8.490;2023-05-16T04:00:07;10.65;;;9.00;;
51660;SDS011;37741;49.748;8.490;2023-05-16T04:02:34;10.30;;;8.85;;
51660;SDS011;37741;49.748;8.490;2023-05-16T04:05:00;11.80;;;9.85;;
51660;SDS011;37741;49.748;8.490;2023-05-16T04:07:26;11.23;;;9.10;;
51660;SDS011;37741;49.748;8.490;2023-05-16T04:09:52;9.98;;;8.88;;
51660;SDS011;37741;49.748;8.490;2023-05-16T04:12:18;10.02;;;8.80;;
51660;SDS011;37741;49.748;8.490;2023-05-16T04:14:44;12.82;;;9.40;;
51660;SDS011;37741;49.748;8.490;2023-05-16T04:17:09;12.38;;;9.55;;
51660;SDS011;37741;49.748;8.490;2023-05-16T04:19:36;11.45;;;9.52;;
51660;SDS011;37741;49.748;8.490;2023-05-16T04:22:02;11.07;;;9.55;;
51660;SDS011;37741;49.748;8.490;2023-05-16T04:24:27;10.50;;;9.35;;
51660;SDS011;37741;49.748;8.490;2023-05-16T04:26:53;10.60;;;9.40;;
51660;SDS011;37741;49.748;8.490;2023-05-16T04:29:19;12.65;;;9.93;;
51660;SDS011;37741;49.748;8.490;2023-05-16T04:31:46;11.50;;;10.27;;
51660;SDS011;37741;49.748;8.490;2023-05-16T04:34:11;14.30;;;11.30;;
51660;SDS011;37741;49.748;8.490;2023-05-16T04:36:37;13.07;;;10.43;;
51660;SDS011;37741;49.748;8.490;2023-05-16T04:39:03;14.43;;;10.73;;
51660;SDS011;37741;49.748;8.490;2023-05-16T04:41:29;10.93;;;9.60;;
51660;SDS011;37741;49.748;8.490;2023-05-16T04:43:54;12.43;;;10.35;;
51660;SDS011;37741;49.748;8.490;2023-05-16T04:46:20;10.80;;;9.50;;
51660;SDS011;37741;49.748;8.490;2023-05-16T04:48:46;13.18;;;9.98;;
51660;SDS011;37741;49.748;8.490;2023-05-16T04:51:11;11.57;;;9.80;;
51660;SDS011;37741;49.748;8.490;2023-05-16T04:53:37;10.55;;;9.15;;
51660;SDS011;37741;49.748;8.490;2023-05-16T04:56:02;10.13;;;8.65;;
51660;SDS011;37741;49.748;8.490;2023-05-16T04:58:29;10.23;;;9.10;;
51660;SDS011;37741;49.748;8.490;2023-05-16T05:00:55;10.48;;;8.57;;
51660;SDS011;37741;49.748;8.490;2023-05-16T05:03:22;10.77;;;8.93;;
51660;SDS011;37741;49.748;8.490;2023-05-16T05:05:47;16.38;;;9.10;;
51660;SDS011;37741;49.748;8.490;2023-05-16T05:08:13;10.95;;;8.65;;
51660;SDS011;37741;49.748;8.490;2023-05-16T05:10:39;10.40;;;8.98;;
51660;SDS011;37741;49.748;8.490;2023-05-16T05:13:05;11.10;;;9.48;;
51660;SDS011;37741;49.748;8.490;2023-05-16T05:15:31;10.68;;;8.43;;
51660;SDS011;37741;49.748;8.490;2023-05-16T05:17:56;8.75;;;7.95;;
51660;SDS011;37741;49.748;8.490;2023-05-16T05:20:22;11.45;;;8.52;;
51660;SDS011;37741;49.748;8.490;2023-05-16T05:22:48;9.70;;;7.68;;
51660;SDS011;37741;49.748;8.490;2023-05-16T05:25:14;10.35;;;8.90;;
51660;SDS011;37741;49.748;8.490;2023-05-16T05:27:41;9.80;;;7.57;;
51660;SDS011;37741;49.748;8.490;2023-05-16T05:30:06;9.65;;;7.68;;
51660;SDS011;37741;49.748;8.490;2023-05-16T05:32:32;9.23;;;7.22;;
51660;SDS011;37741;49.748;8.490;2023-05-16T05:34:58;10.00;;;7.80;;
51660;SDS011;37741;49.748;8.490;2023-05-16T05:37:24;11.02;;;7.95;;
51660;SDS011;37741;49.748;8.490;2023-05-16T05:39:50;9.93;;;8.05;;
51660;SDS011;37741;49.748;8.490;2023-05-16T05:42:16;9.70;;;8.05;;
51660;SDS011;37741;49.748;8.490;2023-05-16T05:44:42;13.10;;;7.63;;
51660;SDS011;37741;49.748;8.490;2023-05-16T05:47:07;8.93;;;7.22;;
51660;SDS011;37741;49.748;8.490;2023-05-16T05:49:33;7.43;;;6.63;;
51660;SDS011;37741;49.748;8.490;2023-05-16T05:51:59;8.07;;;6.50;;
51660;SDS011;37741;49.748;8.490;2023-05-16T05:54:26;8.93;;;5.95;;
51660;SDS011;37741;49.748;8.490;2023-05-16T05:56:52;8.23;;;5.97;;
51660;SDS011;37741;49.748;8.490;2023-05-16T05:59:18;6.85;;;5.10;;
51660;SDS011;37741;49.748;8.490;2023-05-16T06:01:43;6.15;;;4.97;;
51660;SDS011;37741;49.748;8.490;2023-05-16T06:04:09;6.30;;;4.45;;
51660;SDS011;37741;49.748;8.490;2023-05-16T06:06:36;8.63;;;5.50;;
51660;SDS011;37741;49.748;8.490;2023-05-16T06:09:02;5.03;;;4.10;;
51660;SDS011;37741;49.748;8.490;2023-05-16T06:11:27;5.72;;;4.40;;
51660;SDS011;37741;49.748;8.490;2023-05-16T06:13:53;6.88;;;3.72;;
51660;SDS011;37741;49.748;8.490;2023-05-16T06:16:22;4.22;;;3.28;;
51660;SDS011;37741;49.748;8.490;2023-05-16T06:18:48;5.72;;;3.45;;
51660;SDS011;37741;49.748;8.490;2023-05-16T06:21:14;6.35;;;3.47;;
51660;SDS011;37741;49.748;8.490;2023-05-16T06:23:40;3.90;;;2.80;;
51660;SDS011;37741;49.748;8.490;2023-05-16T06:26:05;4.68;;;3.10;;
51660;SDS011;37741;49.748;8.490;2023-05-16T06:28:31;4.18;;;2.47;;
51660;SDS011;37741;49.748;8.490;2023-05-16T06:30:57;3.35;;;2.00;;
51660;SDS011;37741;49.748;8.490;2023-05-16T06:33:22;4.47;;;2.08;;
51660;SDS011;37741;49.748;8.490;2023-05-16T06:35:48;3.05;;;2.10;;
51660;SDS011;37741;49.748;8.490;2023-05-16T06:38:14;3.45;;;2.22;;
51660;SDS011;37741;49.748;8.490;2023-05-16T06:40:40;4.15;;;2.25;;
51660;SDS011;37741;49.748;8.490;2023-05-16T06:43:06;2.95;;;1.70;;
51660;SDS011;37741;49.748;8.490;2023-05-16T06:45:31;2.75;;;1.48;;
51660;SDS011;37741;49.748;8.490;2023-05-16T06:47:57;2.40;;;1.70;;
51660;SDS011;37741;49.748;8.490;2023-05-16T06:50:23;3.28;;;1.80;;
51660;SDS011;37741;49.748;8.490;2023-05-16T06:52:48;2.05;;;1.35;;
51660;SDS011;37741;49.748;8.490;2023-05-16T06:55:14;2.28;;;1.30;;
51660;SDS011;37741;49.748;8.490;2023-05-16T06:57:40;2.40;;;1.30;;
51660;SDS011;37741;49.748;8.490;2023-05-16T07:00:06;2.47;;;1.50;;
51660;SDS011;37741;49.748;8.490;2023-05-16T07:02:33;4.28;;;1.30;;
51660;SDS011;37741;49.748;8.490;2023-05-16T07:04:58;2.97;;;1.25;;
51660;SDS011;37741;49.748;8.490;2023-05-16T07:07:24;2.28;;;1.10;;
51660;SDS011;37741;49.748;8.490;2023-05-16T07:09:50;3.88;;;1.00;;
51660;SDS011;37741;49.748;8.490;2023-05-16T07:12:16;2.63;;;1.00;;
51660;SDS011;37741;49.748;8.490;2023-05-16T07:14:42;2.25;;;0.82;;
51660;SDS011;37741;49.748;8.490;2023-05-16T07:17:08;2.25;;;1.45;;
51660;SDS011;37741;49.748;8.490;2023-05-16T07:19:34;2.20;;;1.08;;
51660;SDS011;37741;49.748;8.490;2023-05-16T07:22:00;1.90;;;1.10;;
51660;SDS011;37741;49.748;8.490;2023-05-16T07:24:25;2.20;;;0.80;;
51660;SDS011;37741;49.748;8.490;2023-05-16T07:26:51;2.08;;;1.02;;
51660;SDS011;37741;49.748;8.490;2023-05-16T07:29:16;1.48;;;0.90;;
51660;SDS011;37741;49.748;8.490;2023-05-16T07:31:42;1.27;;;0.70;;
51660;SDS011;37741;49.748;8.490;2023-05-16T07:34:08;1.80;;;0.90;;
51660;SDS011;37741;49.748;8.490;2023-05-16T07:36:35;1.98;;;0.90;;
51660;SDS011;37741;49.748;8.490;2023-05-16T07:39:01;1.38;;;0.80;;
51660;SDS011;37741;49.748;8.490;2023-05-16T07:41:27;2.05;;;0.90;;
51660;SDS011;37741;49.748;8.490;2023-05-16T07:43:54;1.52;;;0.70;;
51660;SDS011;37741;49.748;8.490;2023-05-16T07:46:19;1.35;;;0.73;;
51660;SDS011;37741;49.748;8.490;2023-05-16T07:48:45;1.55;;;0.80;;
51660;SDS011;37741;49.748;8.490;2023-05-16T07:51:10;1.83;;;0.80;;
51660;SDS011;37741;49.748;8.490;2023-05-16T07:53:36;1.55;;;0.50;;
51660;SDS011;37741;49.748;8.490;2023-05-16T07:56:02;3.17;;;0.70;;
51660;SDS011;37741;49.748;8.490;2023-05-16T07:58:28;1.55;;;0.57;;
51660;SDS011;37741;49.748;8.490;2023-05-16T08:00:53;1.70;;;0.77;;
51660;SDS011;37741;49.748;8.490;2023-05-16T08:03:19;0.63;;;0.40;;
51660;SDS011;37741;49.748;8.490;2023-05-16T08:05:45;1.25;;;0.52;;
51660;SDS011;37741;49.748;8.490;2023-05-16T08:08:12;4.40;;;0.80;;
51660;SDS011;37741;49.748;8.490;2023-05-16T08:10:38;1.10;;;0.68;;
51660;SDS011;37741;49.748;8.490;2023-05-16T08:13:04;1.80;;;0.73;;
51660;SDS011;37741;49.748;8.490;2023-05-16T08:15:30;1.55;;;0.65;;
51660;SDS011;37741;49.748;8.490;2023-05-16T08:17:56;1.40;;;0.68;;
51660;SDS011;37741;49.748;8.490;2023-05-16T08:20:23;1.20;;;0.55;;
51660;SDS011;37741;49.748;8.490;2023-05-16T08:22:49;1.42;;;0.57;;
51660;SDS011;37741;49.748;8.490;2023-05-16T08:25:16;1.25;;;0.65;;
51660;SDS011;37741;49.748;8.490;2023-05-16T08:27:41;1.35;;;0.57;;
51660;SDS011;37741;49.748;8.490;2023-05-16T08:30:09;1.30;;;0.47;;
51660;SDS011;37741;49.748;8.490;2023-05-16T08:32:36;1.58;;;0.35;;
51660;SDS011;37741;49.748;8.490;2023-05-16T08:35:01;2.42;;;0.80;;
51660;SDS011;37741;49.748;8.490;2023-05-16T08:37:27;1.40;;;0.40;;
51660;SDS011;37741;49.748;8.490;2023-05-16T08:39:53;1.77;;;0.68;;
51660;SDS011;37741;49.748;8.490;2023-05-16T08:42:18;0.90;;;0.50;;
51660;SDS011;37741;49.748;8.490;2023-05-16T08:44:44;1.27;;;0.50;;
51660;SDS011;37741;49.748;8.490;2023-05-16T08:47:11;0.70;;;0.40;;
51660;SDS011;37741;49.748;8.490;2023-05-16T08:49:41;1.65;;;0.50;;
51660;SDS011;37741;49.748;8.490;2023-05-16T08:52:11;1.08;;;0.50;;
51660;SDS011;37741;49.748;8.490;2023-05-16T08:54:39;1.33;;;0.40;;
51660;SDS011;37741;49.748;8.490;2023-05-16T08:57:05;0.73;;;0.38;;
51660;SDS011;37741;49.748;8.490;2023-05-16T08:59:33;1.50;;;0.60;;
51660;SDS011;37741;49.748;8.490;2023-05-16T09:01:59;0.90;;;0.43;;
51660;SDS011;37741;49.748;8.490;2023-05-16T09:04:25;1.10;;;0.55;;
51660;SDS011;37741;49.748;8.490;2023-05-16T09:06:51;1.95;;;1.00;;
51660;SDS011;37741;49.748;8.490;2023-05-16T09:09:17;3.03;;;0.50;;
51660;SDS011;37741;49.748;8.490;2023-05-16T09:11:43;1.13;;;0.30;;
51660;SDS011;37741;49.748;8.490;2023-05-16T09:14:09;0.85;;;0.40;;
51660;SDS011;37741;49.748;8.490;2023-05-16T09:16:35;1.25;;;0.30;;
51660;SDS011;37741;49.748;8.490;2023-05-16T09:19:00;3.70;;;0.28;;
51660;SDS011;37741;49.748;8.490;2023-05-16T09:21:27;0.47;;;0.30;;
51660;SDS011;37741;49.748;8.490;2023-05-16T09:23:55;1.52;;;0.40;;
51660;SDS011;37741;49.748;8.490;2023-05-16T09:26:26;0.75;;;0.40;;
51660;SDS011;37741;49.748;8.490;2023-05-16T09:28:53;0.57;;;0.30;;
51660;SDS011;37741;49.748;8.490;2023-05-16T09:31:22;1.17;;;0.35;;
51660;SDS011;37741;49.748;8.490;2023-05-16T09:33:52;0.93;;;0.30;;
51660;SDS011;37741;49.748;8.490;2023-05-16T09:36:22;0.43;;;0.30;;
51660;SDS011;37741;49.748;8.490;2023-05-16T09:38:49;1.15;;;0.25;;
51660;SDS011;37741;49.748;8.490;2023-05-16T09:41:15;2.90;;;0.38;;
51660;SDS011;37741;49.748;8.490;2023-05-16T09:43:41;1.02;;;0.40;;
51660;SDS011;37741;49.748;8.490;2023-05-16T09:46:08;0.98;;;0.30;;
51660;SDS011;37741;49.748;8.490;2023-05-16T09:48:39;0.85;;;0.35;;
51660;SDS011;37741;49.748;8.490;2023-05-16T09:51:06;1.02;;;0.43;;
51660;SDS011;37741;49.748;8.490;2023-05-16T09:53:32;1.77;;;0.60;;
51660;SDS011;37741;49.748;8.490;2023-05-16T09:56:02;1.13;;;0.40;;
51660;SDS011;37741;49.748;8.490;2023-05-16T09:58:29;0.90;;;0.35;;
51660;SDS011;37741;49.748;8.490;2023-05-16T10:00:56;0.80;;;0.38;;
51660;SDS011;37741;49.748;8.490;2023-05-16T10:03:23;1.30;;;0.50;;
51660;SDS011;37741;49.748;8.490;2023-05-16T10:05:50;0.80;;;0.30;;
51660;SDS011;37741;49.748;8.490;2023-05-16T10:08:17;1.00;;;0.32;;
51660;SDS011;37741;49.748;8.490;2023-05-16T10:10:45;0.85;;;0.30;;
51660;SDS011;37741;49.748;8.490;2023-05-16T10:13:13;0.70;;;0.30;;
51660;SDS011;37741;49.748;8.490;2023-05-16T10:15:39;1.40;;;0.50;;
51660;SDS011;37741;49.748;8.490;2023-05-16T10:18:06;0.82;;;0.40;;
51660;SDS011;37741;49.748;8.490;2023-05-16T10:20:37;0.70;;;0.30;;
51660;SDS011;37741;49.748;8.490;2023-05-16T10:23:05;1.42;;;0.22;;
51660;SDS011;37741;49.748;8.490;2023-05-16T10:25:33;1.65;;;0.40;;
51660;SDS011;37741;49.748;8.490;2023-05-16T10:28:05;0.88;;;0.43;;
51660;SDS011;37741;49.748;8.490;2023-05-16T10:30:32;1.58;;;0.50;;
51660;SDS011;37741;49.748;8.490;2023-05-16T10:32:58;1.85;;;0.60;;
51660;SDS011;37741;49.748;8.490;2023-05-16T10:35:26;2.53;;;0.70;;
51660;SDS011;37741;49.748;8.490;2023-05-16T10:37:52;4.90;;;0.88;;
51660;SDS011;37741;49.748;8.490;2023-05-16T10:40:18;2.80;;;1.25;;
51660;SDS011;37741;49.748;8.490;2023-05-16T10:42:58;3.60;;;0.82;;
51660;SDS011;37741;49.748;8.490;2023-05-16T10:45:25;3.15;;;0.70;;
51660;SDS011;37741;49.748;8.490;2023-05-16T10:47:54;1.92;;;0.60;;
51660;SDS011;37741;49.748;8.490;2023-05-16T10:50:38;2.53;;;0.80;;
51660;SDS011;37741;49.748;8.490;2023-05-16T10:53:14;3.05;;;0.90;;
51660;SDS011;37741;49.748;8.490;2023-05-16T10:55:48;4.43;;;0.90;;
51660;SDS011;37741;49.748;8.490;2023-05-16T10:58:38;6.25;;;1.20;;
51660;SDS011;37741;49.748;8.490;2023-05-16T11:14:26;4.07;;;0.70;;
51660;SDS011;37741;49.748;8.490;2023-05-16T11:17:02;3.00;;;1.15;;
51660;SDS011;37741;49.748;8.490;2023-05-16T11:24:47;2.83;;;0.95;;
51660;SDS011;37741;49.748;8.490;2023-05-16T11:29:50;3.70;;;2.55;;
51660;SDS011;37741;49.748;8.490;2023-05-16T11:32:19;5.47;;;1.10;;
51660;SDS011;37741;49.748;8.490;2023-05-16T11:34:47;4.38;;;1.10;;
51660;SDS011;37741;49.748;8.490;2023-05-16T11:37:14;5.70;;;1.83;;
51660;SDS011;37741;49.748;8.490;2023-05-16T11:39:40;4.65;;;1.20;;
51660;SDS011;37741;49.748;8.490;2023-05-16T11:42:05;5.88;;;1.40;;
51660;SDS011;37741;49.748;8.490;2023-05-16T11:44:31;4.72;;;1.73;;
51660;SDS011;37741;49.748;8.490;2023-05-16T11:46:58;4.55;;;1.52;;
51660;SDS011;37741;49.748;8.490;2023-05-16T11:49:26;4.55;;;1.48;;
51660;SDS011;37741;49.748;8.490;2023-05-16T11:51:54;4.38;;;1.63;;
51660;SDS011;37741;49.748;8.490;2023-05-16T11:54:22;4.53;;;1.30;;
51660;SDS011;37741;49.748;8.490;2023-05-16T11:56:48;4.70;;;1.35;;
51660;SDS011;37741;49.748;8.490;2023-05-16T11:59:15;6.05;;;1.40;;
51660;SDS011;37741;49.748;8.490;2023-05-16T12:01:42;9.55;;;1.30;;
51660;SDS011;37741;49.748;8.490;2023-05-16T12:04:08;4.97;;;1.75;;
51660;SDS011;37741;49.748;8.490;2023-05-16T12:06:38;7.00;;;1.80;;
51660;SDS011;37741;49.748;8.490;2023-05-16T12:09:10;6.13;;;1.00;;
51660;SDS011;37741;49.748;8.490;2023-05-16T12:11:37;3.90;;;1.10;;
51660;SDS011;37741;49.748;8.490;2023-05-16T12:14:04;5.13;;;1.52;;
51660;SDS011;37741;49.748;8.490;2023-05-16T12:16:31;4.63;;;1.52;;
51660;SDS011;37741;49.748;8.490;2023-05-16T12:18:58;4.93;;;1.38;;
51660;SDS011;37741;49.748;8.490;2023-05-16T12:21:26;5.07;;;1.40;;
51660;SDS011;37741;49.748;8.490;2023-05-16T12:23:55;6.28;;;1.50;;
51660;SDS011;37741;49.748;8.490;2023-05-16T12:26:24;6.82;;;1.05;;
51660;SDS011;37741;49.748;8.490;2023-05-16T12:28:55;5.28;;;1.10;;
51660;SDS011;37741;49.748;8.490;2023-05-16T12:31:27;4.75;;;1.42;;
51660;SDS011;37741;49.748;8.490;2023-05-16T12:33:54;3.33;;;1.20;;
51660;SDS011;37741;49.748;8.490;2023-05-16T12:36:21;5.18;;;1.52;;
51660;SDS011;37741;49.748;8.490;2023-05-16T12:38:48;4.20;;;1.50;;
51660;SDS011;37741;49.748;8.490;2023-05-16T12:41:17;3.22;;;1.42;;
51660;SDS011;37741;49.748;8.490;2023-05-16T12:43:44;5.28;;;1.23;;
51660;SDS011;37741;49.748;8.490;2023-05-16T12:46:09;3.25;;;1.20;;
51660;SDS011;37741;49.748;8.490;2023-05-16T12:48:38;5.38;;;1.60;;
51660;SDS011;37741;49.748;8.490;2023-05-16T12:51:11;3.28;;;1.13;;
51660;SDS011;37741;49.748;8.490;2023-05-16T12:53:46;2.58;;;1.02;;
51660;SDS011;37741;49.748;8.490;2023-05-16T12:56:13;2.47;;;0.98;;
51660;SDS011;37741;49.748;8.490;2023-05-16T12:58:40;4.22;;;1.30;;
51660;SDS011;37741;49.748;8.490;2023-05-16T13:01:06;3.28;;;1.35;;
51660;SDS011;37741;49.748;8.490;2023-05-16T13:03:32;4.85;;;1.75;;
51660;SDS011;37741;49.748;8.490;2023-05-16T13:05:59;4.47;;;1.10;;
51660;SDS011;37741;49.748;8.490;2023-05-16T13:08:26;4.22;;;1.45;;
51660;SDS011;37741;49.748;8.490;2023-05-16T13:10:51;2.92;;;1.17;;
51660;SDS011;37741;49.748;8.490;2023-05-16T13:13:17;4.30;;;1.40;;
51660;SDS011;37741;49.748;8.490;2023-05-16T13:15:46;5.55;;;1.25;;
51660;SDS011;37741;49.748;8.490;2023-05-16T13:18:12;4.95;;;1.27;;
51660;SDS011;37741;49.748;8.490;2023-05-16T13:20:38;4.93;;;1.10;;
51660;SDS011;37741;49.748;8.490;2023-05-16T13:23:04;5.93;;;2.30;;
51660;SDS011;37741;49.748;8.490;2023-05-16T13:25:32;3.85;;;1.33;;
51660;SDS011;37741;49.748;8.490;2023-05-16T13:27:58;2.55;;;0.85;;
51660;SDS011;37741;49.748;8.490;2023-05-16T13:30:24;5.22;;;1.92;;
51660;SDS011;37741;49.748;8.490;2023-05-16T13:32:50;4.68;;;1.08;;
51660;SDS011;37741;49.748;8.490;2023-05-16T13:35:16;3.15;;;1.00;;
51660;SDS011;37741;49.748;8.490;2023-05-16T13:37:42;6.85;;;1.40;;
51660;SDS011;37741;49.748;8.490;2023-05-16T13:40:08;6.25;;;1.60;;
51660;SDS011;37741;49.748;8.490;2023-05-16T13:42:35;4.80;;;1.17;;
51660;SDS011;37741;49.748;8.490;2023-05-16T13:45:02;4.50;;;1.23;;
51660;SDS011;37741;49.748;8.490;2023-05-16T13:47:28;5.32;;;1.98;;
51660;SDS011;37741;49.748;8.490;2023-05-16T13:49:54;6.85;;;1.63;;
51660;SDS011;37741;49.748;8.490;2023-05-16T13:52:20;5.63;;;2.03;;
51660;SDS011;37741;49.748;8.490;2023-05-16T13:54:45;4.20;;;0.95;;
51660;SDS011;37741;49.748;8.490;2023-05-16T13:57:11;7.25;;;1.83;;
51660;SDS011;37741;49.748;8.490;2023-05-16T13:59:37;5.10;;;1.08;;
51660;SDS011;37741;49.748;8.490;2023-05-16T14:02:03;4.95;;;1.50;;
51660;SDS011;37741;49.748;8.490;2023-05-16T14:04:28;4.38;;;1.60;;
51660;SDS011;37741;49.748;8.490;2023-05-16T14:06:54;2.92;;;1.30;;
51660;SDS011;37741;49.748;8.490;2023-05-16T14:09:20;4.78;;;1.10;;
51660;SDS011;37741;49.748;8.490;2023-05-16T14:11:46;3.88;;;0.90;;
51660;SDS011;37741;49.748;8.490;2023-05-16T14:14:12;6.15;;;1.30;;
51660;SDS011;37741;49.748;8.490;2023-05-16T14:16:37;4.45;;;1.30;;
51660;SDS011;37741;49.748;8.490;2023-05-16T14:19:07;4.65;;;0.90;;
51660;SDS011;37741;49.748;8.490;2023-05-16T14:21:33;4.97;;;0.73;;
51660;SDS011;37741;49.748;8.490;2023-05-16T14:23:58;3.30;;;1.38;;
51660;SDS011;37741;49.748;8.490;2023-05-16T14:26:24;2.63;;;0.75;;
51660;SDS011;37741;49.748;8.490;2023-05-16T14:28:50;2.53;;;1.02;;
51660;SDS011;37741;49.748;8.490;2023-05-16T14:31:16;4.43;;;0.98;;
51660;SDS011;37741;49.748;8.490;2023-05-16T14:33:41;3.53;;;1.10;;
51660;SDS011;37741;49.748;8.490;2023-05-16T14:36:07;3.58;;;0.82;;
51660;SDS011;37741;49.748;8.490;2023-05-16T14:38:33;3.10;;;0.80;;
51660;SDS011;37741;49.748;8.490;2023-05-16T14:40:59;5.05;;;1.17;;
51660;SDS011;37741;49.748;8.490;2023-05-16T14:43:25;3.03;;;0.88;;
51660;SDS011;37741;49.748;8.490;2023-05-16T14:45:50;4.88;;;1.08;;
51660;SDS011;37741;49.748;8.490;2023-05-16T14:48:18;3.92;;;0.93;;
51660;SDS011;37741;49.748;8.490;2023-05-16T14:50:44;3.40;;;1.17;;
51660;SDS011;37741;49.748;8.490;2023-05-16T14:53:10;3.78;;;0.90;;
51660;SDS011;37741;49.748;8.490;2023-05-16T14:55:35;5.28;;;1.17;;
51660;SDS011;37741;49.748;8.490;2023-05-16T14:58:01;6.15;;;0.93;;
51660;SDS011;37741;49.748;8.490;2023-05-16T15:00:27;4.18;;;1.10;;
51660;SDS011;37741;49.748;8.490;2023-05-16T15:02:53;4.50;;;1.38;;
51660;SDS011;37741;49.748;8.490;2023-05-16T15:05:18;4.90;;;1.20;;
51660;SDS011;37741;49.748;8.490;2023-05-16T15:07:44;5.63;;;1.17;;
51660;SDS011;37741;49.748;8.490;2023-05-16T15:10:10;4.10;;;1.05;;
51660;SDS011;37741;49.748;8.490;2023-05-16T15:12:36;8.10;;;1.48;;